Saint Louis, Missouri
Traffic Map
Current Weather Conditions
Saint Louis, Missouri
Clear
Clear
72°
Feels Like: 72°
Wind Chill: 72° Ceiling: Unl
Heat Index: 72° Visibility: 10mi
Dew Point: 70° Wind: 5mph
Humidity: 93% Direction: 160° (SSE)
Pressure: 29.94in Gusts: 0mph
Raw Report DataKCPS 310753Z AUTO 16004KT 10SM CLR 22/21 A2994 RMK AO2 SLP135 T02220211 TSNO $
Traffic Incident Summary
Active as of:
Severity:
Category:
InformationThere was an issue retrieving the traffic information for this location. Please try a different location or try again shortly.
Advertisements
Track Severe Weather on mobile